createdAt,value
2019-05-18T00:02:27.834Z,61.70
2019-05-18T00:07:32.940Z,61.60
2019-05-18T00:12:39.001Z,61.60
2019-05-18T00:17:45.168Z,61.50
2019-05-18T00:22:51.188Z,61.60
2019-05-18T00:27:56.170Z,61.50
2019-05-18T00:33:01.263Z,61.50
2019-05-18T00:38:06.405Z,61.50
2019-05-18T00:43:11.351Z,61.60
2019-05-18T00:48:16.532Z,61.50
2019-05-18T00:53:21.641Z,61.60
2019-05-18T00:58:26.650Z,61.50
2019-05-18T01:03:31.487Z,61.50
2019-05-18T01:08:36.490Z,61.50
2019-05-18T01:13:41.387Z,61.60
2019-05-18T01:18:46.236Z,61.60
2019-05-18T01:23:52.473Z,61.70
2019-05-18T01:29:00.587Z,61.70
2019-05-18T01:34:05.780Z,61.70
2019-05-18T01:39:10.574Z,61.70
2019-05-18T01:44:15.383Z,61.80
2019-05-18T01:49:20.296Z,61.80
2019-05-18T01:54:26.051Z,61.90
2019-05-18T01:59:31.017Z,61.90
2019-05-18T02:04:35.944Z,61.90
2019-05-18T02:09:40.931Z,61.90
2019-05-18T02:14:45.892Z,62.70
2019-05-18T02:19:51.003Z,61.90
2019-05-18T02:24:56.163Z,62.70
2019-05-18T02:30:01.016Z,61.90
2019-05-18T02:40:28.522Z,61.90
2019-05-18T02:45:33.271Z,61.90
2019-05-18T02:50:38.112Z,62.00
2019-05-18T02:55:43.142Z,61.90
2019-05-18T03:00:48.336Z,61.90
2019-05-18T03:05:53.286Z,61.90
2019-05-18T03:10:58.379Z,61.90
2019-05-18T03:16:03.245Z,61.80
2019-05-18T03:21:08.076Z,61.80
2019-05-18T03:26:13.086Z,61.80
2019-05-18T03:31:18.114Z,61.70
2019-05-18T03:36:23.761Z,61.70
2019-05-18T03:41:30.070Z,61.90
2019-05-18T03:46:34.943Z,61.80
2019-05-18T03:51:39.785Z,61.90
2019-05-18T03:56:44.831Z,61.70
2019-05-18T04:01:49.793Z,61.70
2019-05-18T04:06:54.899Z,61.70
2019-05-18T04:11:59.843Z,61.70
2019-05-18T04:17:04.782Z,61.50
2019-05-18T04:22:09.784Z,61.60
2019-05-18T04:27:14.684Z,61.70
2019-05-18T04:32:20.560Z,61.70
2019-05-18T04:37:25.557Z,61.70
2019-05-18T04:42:30.649Z,61.70
2019-05-18T04:47:36.843Z,61.60
2019-05-18T04:52:41.899Z,61.60
2019-05-18T04:57:46.944Z,61.60
2019-05-18T05:02:51.914Z,61.60
2019-05-18T05:07:57.354Z,61.60
2019-05-18T05:13:03.432Z,61.60
2019-05-18T05:18:10.830Z,61.60
2019-05-18T05:23:15.664Z,62.40
2019-05-18T05:28:21.182Z,61.50
2019-05-18T05:33:26.613Z,61.40
2019-05-18T05:38:31.644Z,61.40
2019-05-18T05:43:36.488Z,61.30
2019-05-18T05:48:41.454Z,61.40
2019-05-18T05:53:46.639Z,61.40
2019-05-18T05:58:52.831Z,61.20
2019-05-18T06:03:58.000Z,61.30
2019-05-18T06:09:04.616Z,61.20
2019-05-18T06:14:09.890Z,61.20
2019-05-18T06:19:14.826Z,61.20
2019-05-18T06:24:19.889Z,61.20
2019-05-18T06:29:25.060Z,61.20
2019-05-18T06:34:30.123Z,61.20
2019-05-18T06:39:35.336Z,61.70
2019-05-18T06:44:40.620Z,61.10
2019-05-18T06:49:45.848Z,61.10
2019-05-18T06:54:50.925Z,61.10
2019-05-18T06:59:56.088Z,61.20
2019-05-18T07:05:01.112Z,61.10
2019-05-18T07:10:07.905Z,61.10
2019-05-18T07:15:13.310Z,61.10
2019-05-18T07:20:19.453Z,61.10
2019-05-18T07:25:24.669Z,61.10
2019-05-18T07:30:29.723Z,61.10
2019-05-18T07:35:34.881Z,61.10
2019-05-18T07:40:40.581Z,61.20
2019-05-18T07:45:46.015Z,61.30
2019-05-18T07:50:51.404Z,61.30
2019-05-18T07:55:57.569Z,61.30
2019-05-18T08:01:02.638Z,61.30
2019-05-18T08:06:08.142Z,61.30
2019-05-18T08:11:13.449Z,62.20
2019-05-18T08:16:18.682Z,61.40
2019-05-18T08:21:23.980Z,61.40
2019-05-18T08:26:29.008Z,61.40
2019-05-18T08:31:34.374Z,61.50
2019-05-18T08:36:39.644Z,61.50
2019-05-18T08:41:48.207Z,61.50
2019-05-18T08:46:52.098Z,61.50
2019-05-18T08:52:07.902Z,61.50
2019-05-18T08:57:04.253Z,61.60
2019-05-18T09:02:09.532Z,61.60
2019-05-18T09:07:14.686Z,61.60
2019-05-18T09:12:19.870Z,61.70
2019-05-18T09:17:24.887Z,61.70
2019-05-18T09:22:29.796Z,61.80
2019-05-18T09:27:34.959Z,62.60
2019-05-18T09:32:40.121Z,61.90
2019-05-18T09:37:45.385Z,62.50
2019-05-18T09:42:50.419Z,61.90
2019-05-18T09:47:55.573Z,61.90
2019-05-18T09:53:00.717Z,62.10
2019-05-18T09:58:05.877Z,62.00
2019-05-18T10:03:11.460Z,62.10
2019-05-18T10:08:16.806Z,62.20
2019-05-18T10:13:22.162Z,62.20
2019-05-18T10:18:27.504Z,62.10
2019-05-18T10:23:32.505Z,63.00
2019-05-18T10:28:37.676Z,62.30
2019-05-18T10:33:43.193Z,63.00
2019-05-18T10:38:48.558Z,62.30
2019-05-18T10:43:54.315Z,62.40
2019-05-18T10:48:59.460Z,62.40
2019-05-18T10:54:04.766Z,62.40
2019-05-18T10:59:10.289Z,62.50
2019-05-18T11:04:15.629Z,62.50
2019-05-18T11:09:20.994Z,62.60
2019-05-18T11:14:26.137Z,62.60
2019-05-18T11:19:31.507Z,62.70
2019-05-18T11:24:36.540Z,62.70
2019-05-18T11:29:41.614Z,62.70
2019-05-18T11:34:46.746Z,63.60
2019-05-18T11:39:51.844Z,62.60
2019-05-18T11:44:58.720Z,62.60
2019-05-18T11:50:05.092Z,62.60
2019-05-18T11:55:10.228Z,62.70
2019-05-18T12:00:16.942Z,62.60
2019-05-18T12:05:21.956Z,62.60
2019-05-18T12:10:27.373Z,62.60
2019-05-18T12:15:33.122Z,62.50
2019-05-18T12:20:38.564Z,62.50
2019-05-18T12:25:44.030Z,63.30
2019-05-18T12:30:49.181Z,62.50
2019-05-18T12:35:54.316Z,62.50
2019-05-18T12:40:59.603Z,62.40
2019-05-18T12:46:04.624Z,62.40
2019-05-18T12:51:09.600Z,62.30
2019-05-18T12:56:14.736Z,62.30
2019-05-18T13:01:19.915Z,62.30
2019-05-18T13:06:25.052Z,61.90
2019-05-18T13:11:30.244Z,61.70
2019-05-18T13:16:35.595Z,61.50
2019-05-18T13:21:40.927Z,61.30
2019-05-18T13:26:46.165Z,61.20
2019-05-18T13:31:51.640Z,61.30
2019-05-18T13:36:56.887Z,61.30
2019-05-18T13:42:02.256Z,61.10
2019-05-18T13:47:07.891Z,61.00
2019-05-18T13:52:13.064Z,60.80
2019-05-18T13:57:18.036Z,60.60
2019-05-18T14:02:23.200Z,60.60
2019-05-18T14:07:28.093Z,60.60
2019-05-18T14:12:33.360Z,61.40
2019-05-18T14:17:38.548Z,60.40
2019-05-18T14:22:43.976Z,60.40
2019-05-18T14:27:49.279Z,60.40
2019-05-18T14:32:54.713Z,60.20
2019-05-18T14:38:00.192Z,60.50
2019-05-18T14:43:05.647Z,60.00
2019-05-18T14:48:12.333Z,59.90
2019-05-18T14:53:17.582Z,59.80
2019-05-18T14:58:22.642Z,59.70
2019-05-18T15:03:27.696Z,59.70
2019-05-18T15:08:34.809Z,59.70
2019-05-18T15:13:40.262Z,59.50
2019-05-18T15:18:45.404Z,59.50
2019-05-18T15:23:51.972Z,59.40
2019-05-18T15:28:58.029Z,59.30
2019-05-18T15:34:04.215Z,59.20
2019-05-18T15:39:10.005Z,59.20
2019-05-18T15:44:16.903Z,59.10
2019-05-18T15:49:23.187Z,59.20
2019-05-18T15:54:29.130Z,59.20
2019-05-18T15:59:34.043Z,59.40
2019-05-18T16:04:40.101Z,59.40
2019-05-18T16:09:45.175Z,59.50
2019-05-18T16:14:51.087Z,59.60
2019-05-18T16:19:56.249Z,59.70
2019-05-18T16:25:01.285Z,59.70
2019-05-18T16:30:07.881Z,59.80
2019-05-18T16:35:12.988Z,59.80
2019-05-18T16:40:19.548Z,60.00
2019-05-18T16:45:24.590Z,60.10
2019-05-18T16:50:30.339Z,60.20
2019-05-18T16:55:35.525Z,60.30
2019-05-18T17:00:40.664Z,60.30
2019-05-18T17:05:45.768Z,60.60
2019-05-18T17:10:51.034Z,60.00
2019-05-18T17:15:56.521Z,60.90
2019-05-18T17:21:01.761Z,61.20
2019-05-18T17:26:06.957Z,61.40
2019-05-18T17:31:11.873Z,61.60
2019-05-18T17:36:19.549Z,61.80
2019-05-18T17:41:23.371Z,62.00
2019-05-18T17:46:28.533Z,62.30
2019-05-18T17:51:33.537Z,62.50
2019-05-18T17:56:38.759Z,62.60
2019-05-18T18:01:44.177Z,62.70
2019-05-18T18:06:49.287Z,62.90
2019-05-18T18:11:55.513Z,63.00
2019-05-18T18:17:00.773Z,62.40
2019-05-18T18:22:05.868Z,63.20
2019-05-18T18:27:24.051Z,63.30
2019-05-18T18:32:17.542Z,63.40
2019-05-18T18:37:22.523Z,63.40
2019-05-18T18:42:27.543Z,64.40
2019-05-18T18:47:32.678Z,63.70
2019-05-18T18:52:37.829Z,63.60
2019-05-18T18:57:42.778Z,63.80
2019-05-18T19:02:49.113Z,63.70
2019-05-18T19:07:54.191Z,63.80
2019-05-18T19:12:59.275Z,63.60
2019-05-18T19:18:04.420Z,63.60
2019-05-18T19:23:09.487Z,63.50
2019-05-18T19:28:14.623Z,64.20
2019-05-18T19:33:19.720Z,63.20
2019-05-18T19:38:24.819Z,63.10
2019-05-18T19:43:30.032Z,63.00
2019-05-18T19:48:34.992Z,62.90
2019-05-18T19:53:40.379Z,62.70
2019-05-18T19:58:45.348Z,62.60
2019-05-18T20:03:50.481Z,62.60
2019-05-18T20:08:55.686Z,62.60
2019-05-18T20:14:00.748Z,62.70
2019-05-18T20:19:05.840Z,62.40
2019-05-18T20:24:10.815Z,62.40
2019-05-18T20:29:15.855Z,62.30
2019-05-18T20:34:20.740Z,62.20
2019-05-18T20:39:25.843Z,62.30
2019-05-18T20:44:30.642Z,62.10
2019-05-18T20:49:35.518Z,62.10
2019-05-18T20:54:40.602Z,62.30
2019-05-18T20:59:45.710Z,61.90
2019-05-18T21:04:51.996Z,61.80
2019-05-18T21:09:57.078Z,61.80
2019-05-18T21:15:02.270Z,61.70
2019-05-18T21:20:07.921Z,61.70
2019-05-18T21:25:13.067Z,61.70
2019-05-18T21:30:17.945Z,61.70
2019-05-18T21:35:23.042Z,61.70
2019-05-18T21:40:27.929Z,61.60
2019-05-18T21:45:32.884Z,61.60
2019-05-18T21:50:37.781Z,61.60
2019-05-18T21:55:42.867Z,61.50
2019-05-18T22:00:47.762Z,61.50
2019-05-18T22:05:52.593Z,61.50
2019-05-18T22:10:57.592Z,61.50
2019-05-18T22:16:02.590Z,61.50
2019-05-18T22:21:07.608Z,61.50
2019-05-18T22:26:12.651Z,61.40
2019-05-18T22:31:19.620Z,61.40
2019-05-18T22:36:25.215Z,61.50
2019-05-18T22:41:30.106Z,61.50
2019-05-18T22:46:36.245Z,61.40
2019-05-18T22:51:41.457Z,61.30
2019-05-18T22:56:46.325Z,61.40
2019-05-18T23:01:51.388Z,61.40
2019-05-18T23:06:56.323Z,61.40
2019-05-18T23:12:01.240Z,61.30
2019-05-18T23:17:06.320Z,61.30
2019-05-18T23:22:11.416Z,61.30
2019-05-18T23:27:16.522Z,61.30
2019-05-18T23:32:21.484Z,61.30
2019-05-18T23:37:26.418Z,61.30
2019-05-18T23:42:31.269Z,61.30
2019-05-18T23:47:36.113Z,61.30
2019-05-18T23:52:41.134Z,61.30
2019-05-18T23:57:46.234Z,61.30
